createdAt,value
2016-09-25T00:00:47.762Z,97.13
2016-09-25T00:01:47.728Z,97.03
2016-09-25T00:02:47.695Z,96.55
2016-09-25T00:03:47.656Z,96.65
2016-09-25T00:04:47.625Z,96.84
2016-09-25T00:05:47.587Z,96.84
2016-09-25T00:06:47.549Z,96.75
2016-09-25T00:07:47.515Z,96.65
2016-09-25T00:08:47.478Z,96.75
2016-09-25T00:09:47.441Z,96.75
2016-09-25T00:10:47.407Z,96.94
2016-09-25T00:11:47.368Z,96.75
2016-09-25T00:12:47.031Z,96.75
2016-09-25T00:13:47.300Z,96.94
2016-09-25T00:14:47.263Z,96.65
2016-09-25T00:15:47.233Z,96.94
2016-09-25T00:16:47.191Z,96.94
2016-09-25T00:17:47.156Z,96.84
2016-09-25T00:18:47.117Z,96.98
2016-09-25T00:19:46.787Z,96.89
2016-09-25T00:20:47.046Z,97.03
2016-09-25T00:21:47.011Z,96.98
2016-09-25T00:22:46.972Z,96.94
2016-09-25T00:23:46.935Z,97.46
2016-09-25T00:24:46.903Z,96.84
2016-09-25T00:25:46.865Z,97.51
2016-09-25T00:26:46.831Z,97.27
2016-09-25T00:27:46.791Z,97.36
2016-09-25T00:28:46.453Z,97.08
2016-09-25T00:29:46.721Z,97.08
2016-09-25T00:30:46.685Z,97.27
2016-09-25T00:31:46.652Z,97.27
2016-09-25T00:32:46.615Z,97.36
2016-09-25T00:33:46.580Z,97.46
2016-09-25T00:34:46.541Z,97.55
2016-09-25T00:35:46.203Z,97.55
2016-09-25T00:36:46.470Z,97.65
2016-09-25T00:37:46.129Z,97.55
2016-09-25T00:38:46.093Z,97.17
2016-09-25T00:39:46.361Z,97.36
2016-09-25T00:40:46.321Z,97.36
2016-09-25T00:41:46.290Z,97.55
2016-09-25T00:42:45.950Z,97.93
2016-09-25T00:43:46.214Z,97.84
2016-09-25T00:44:46.178Z,97.55
2016-09-25T00:45:46.142Z,97.65
2016-09-25T00:46:46.107Z,97.74
2016-09-25T00:47:46.077Z,98.03
2016-09-25T00:48:46.036Z,98.03
2016-09-25T00:49:46.005Z,98.03
2016-09-25T00:50:45.966Z,98.13
2016-09-25T00:51:45.623Z,97.93
2016-09-25T00:52:45.898Z,98.03
2016-09-25T00:53:45.852Z,97.84
2016-09-25T00:54:45.820Z,97.84
2016-09-25T00:55:45.782Z,98.03
2016-09-25T00:56:45.747Z,97.65
2016-09-25T00:57:45.407Z,97.65
2016-09-25T00:58:45.671Z,97.65
2016-09-25T00:59:45.637Z,97.65
2016-09-25T01:00:45.612Z,98.22
2016-09-25T01:01:45.565Z,98.03
2016-09-25T01:02:45.527Z,98.22
2016-09-25T01:03:45.490Z,98.32
2016-09-25T01:04:45.456Z,98.41
2016-09-25T01:05:45.418Z,98.32
2016-09-25T01:06:45.383Z,98.41
2016-09-25T01:07:45.347Z,98.41
2016-09-25T01:08:45.008Z,98.13
2016-09-25T01:09:45.273Z,98.22
2016-09-25T01:10:45.234Z,98.32
2016-09-25T01:11:45.201Z,98.69
2016-09-25T01:12:45.167Z,98.32
2016-09-25T01:13:45.129Z,98.88
2016-09-25T01:14:45.094Z,98.41
2016-09-25T01:15:44.754Z,98.6
2016-09-25T01:16:45.028Z,98.6
2016-09-25T01:17:44.682Z,98.5
2016-09-25T01:18:44.948Z,98.41
2016-09-25T01:19:44.912Z,98.22
2016-09-25T01:20:44.873Z,98.6
2016-09-25T01:21:44.838Z,98.22
2016-09-25T01:22:44.802Z,98.6
2016-09-25T01:23:44.776Z,98.69
2016-09-25T01:24:44.432Z,98.79
2016-09-25T01:25:44.389Z,98.22
2016-09-25T01:26:44.662Z,98.5
2016-09-25T01:27:44.621Z,98.5
2016-09-25T01:28:44.584Z,98.41
2016-09-25T01:29:44.547Z,98.69
2016-09-25T01:30:44.510Z,98.6
2016-09-25T01:31:44.481Z,98.13
2016-09-25T01:32:44.440Z,98.41
2016-09-25T01:33:44.403Z,98.41
2016-09-25T01:34:44.366Z,98.79
2016-09-25T01:35:44.333Z,98.36
2016-09-25T01:36:44.293Z,98.83
2016-09-25T01:37:44.254Z,98.88
2016-09-25T01:38:44.222Z,98.98
2016-09-25T01:39:44.183Z,98.5
2016-09-25T01:40:44.164Z,98.6
2016-09-25T01:41:44.112Z,98.74
2016-09-25T01:42:44.077Z,98.79
2016-09-25T01:43:44.038Z,98.36
2016-09-25T01:44:44.003Z,99.08
2016-09-25T01:45:43.972Z,99.46
2016-09-25T01:46:43.931Z,99.02
2016-09-25T01:47:43.594Z,99.08
2016-09-25T01:48:43.556Z,98.79
2016-09-25T01:49:43.819Z,99.22
2016-09-25T01:50:43.784Z,98.46
2016-09-25T01:51:43.750Z,99.12
2016-09-25T01:52:43.714Z,99.02
2016-09-25T01:53:43.676Z,98.46
2016-09-25T01:54:43.637Z,99.02
2016-09-25T01:55:43.299Z,99.02
2016-09-25T01:56:43.566Z,98.46
2016-09-25T01:57:43.527Z,99.02
2016-09-25T01:58:43.492Z,99.02
2016-09-25T01:59:43.456Z,98.55
2016-09-25T02:00:43.417Z,99.12
2016-09-25T02:01:43.382Z,99.12
2016-09-25T02:02:43.342Z,99.12
2016-09-25T02:03:43.310Z,99.02
2016-09-25T02:04:43.286Z,99.02
2016-09-25T02:05:43.234Z,99.02
2016-09-25T02:06:43.202Z,98.83
2016-09-25T02:07:42.860Z,98.83
2016-09-25T02:08:43.145Z,98.93
2016-09-25T02:09:43.091Z,98.74
2016-09-25T02:10:42.752Z,99.22
2016-09-25T02:11:43.015Z,98.83
2016-09-25T02:12:42.981Z,99.12
2016-09-25T02:13:42.953Z,98.93
2016-09-25T02:14:42.604Z,98.74
2016-09-25T02:15:42.871Z,98.93
2016-09-25T02:16:42.836Z,98.93
2016-09-25T02:17:42.798Z,99.12
2016-09-25T02:18:42.762Z,99.12
2016-09-25T02:19:42.722Z,99.02
2016-09-25T02:20:42.687Z,99.31
2016-09-25T02:21:42.649Z,99.79
2016-09-25T02:22:42.615Z,99.02
2016-09-25T02:23:42.275Z,99.12
2016-09-25T02:24:42.540Z,98.93
2016-09-25T02:25:42.507Z,99.31
2016-09-25T02:26:42.471Z,99.22
2016-09-25T02:27:42.429Z,99.02
2016-09-25T02:28:42.395Z,99.12
2016-09-25T02:29:42.063Z,99.02
2016-09-25T02:30:42.018Z,98.93
2016-09-25T02:31:42.285Z,99.22
2016-09-25T02:32:42.251Z,99.31
2016-09-25T02:33:42.212Z,99.22
2016-09-25T02:34:42.178Z,99.31
2016-09-25T02:35:42.140Z,99.31
2016-09-25T02:36:42.106Z,98.74
2016-09-25T02:37:42.063Z,99.22
2016-09-25T02:38:42.033Z,99.02
2016-09-25T02:39:41.996Z,99.12
2016-09-25T02:40:41.958Z,98.74
2016-09-25T02:41:41.915Z,98.93
2016-09-25T02:42:41.881Z,99.22
2016-09-25T02:43:41.548Z,99.31
2016-09-25T02:44:41.805Z,99.31
2016-09-25T02:45:41.774Z,98.93
2016-09-25T02:46:41.432Z,99.12
2016-09-25T02:47:41.697Z,99.69
2016-09-25T02:48:41.672Z,99.69
2016-09-25T02:49:41.624Z,99.79
2016-09-25T02:50:41.591Z,99.6
2016-09-25T02:51:41.247Z,99.69
2016-09-25T02:52:41.513Z,99.22
2016-09-25T02:53:41.479Z,99.79
2016-09-25T02:54:41.139Z,99.88
2016-09-25T02:55:41.402Z,99.5
2016-09-25T02:56:41.063Z,99.79
2016-09-25T02:57:41.332Z,98.93
2016-09-25T02:58:41.294Z,99.31
2016-09-25T02:59:41.257Z,99.41
2016-09-25T03:00:41.220Z,99.6
2016-09-25T03:01:41.190Z,99.22
2016-09-25T03:02:41.148Z,99.22
2016-09-25T03:03:41.111Z,99.22
2016-09-25T03:04:41.072Z,98.93
2016-09-25T03:05:41.038Z,99.6
2016-09-25T03:06:40.696Z,99.79
2016-09-25T03:07:40.964Z,99.69
2016-09-25T03:08:40.930Z,99.79
2016-09-25T03:09:40.891Z,99.22
2016-09-25T03:10:40.864Z,99.69
2016-09-25T03:11:40.514Z,99.12
2016-09-25T03:12:40.782Z,99.5
2016-09-25T03:13:40.440Z,99.31
2016-09-25T03:14:40.708Z,99.79
2016-09-25T03:15:40.671Z,99.88
2016-09-25T03:16:40.638Z,99.79
2016-09-25T03:17:40.596Z,99.69
2016-09-25T03:18:40.559Z,99.41
2016-09-25T03:19:40.522Z,99.79
2016-09-25T03:20:40.487Z,99.79
2016-09-25T03:21:40.448Z,99.79
2016-09-25T03:22:40.414Z,99.88
2016-09-25T03:23:40.384Z,99.79
2016-09-25T03:24:40.339Z,99.41
2016-09-25T03:25:40.302Z,99.88
2016-09-25T03:26:40.267Z,99.88
2016-09-25T03:27:40.226Z,99.79
2016-09-25T03:28:40.192Z,99.79
2016-09-25T03:29:40.159Z,99.88
2016-09-25T03:30:39.819Z,99.79
2016-09-25T03:31:40.097Z,99.36
2016-09-25T03:32:40.049Z,99.41
2016-09-25T03:33:40.008Z,99.07
2016-09-25T03:34:39.980Z,99.07
2016-09-25T03:35:39.932Z,98.97
2016-09-25T03:36:39.897Z,99.55
2016-09-25T03:37:39.862Z,99.84
2016-09-25T03:38:39.821Z,99.64
2016-09-25T03:39:39.486Z,99.55
2016-09-25T03:40:39.748Z,99.55
2016-09-25T03:41:39.709Z,99.84
2016-09-25T03:42:39.683Z,99.84
2016-09-25T03:43:39.640Z,99.64
2016-09-25T03:44:39.601Z,99.26
2016-09-25T03:45:39.261Z,99.55
2016-09-25T03:46:39.527Z,99.84
2016-09-25T03:47:39.491Z,99.74
2016-09-25T03:48:39.456Z,99.16
2016-09-25T03:49:39.420Z,99.16
2016-09-25T03:50:39.380Z,99.26
2016-09-25T03:51:39.344Z,99.55
2016-09-25T03:52:39.311Z,99.74
2016-09-25T03:53:39.272Z,99.16
2016-09-25T03:54:38.930Z,99.16
2016-09-25T03:55:39.203Z,99.16
2016-09-25T03:56:39.161Z,99.36
2016-09-25T03:57:39.123Z,99.74
2016-09-25T03:58:39.087Z,99.74
2016-09-25T03:59:39.048Z,99.36
2016-09-25T04:00:39.016Z,99.74
2016-09-25T04:01:38.973Z,99.45
2016-09-25T04:02:38.935Z,99.74
2016-09-25T04:03:38.901Z,99.74
2016-09-25T04:04:38.861Z,99.55
2016-09-25T04:05:38.826Z,99.07
2016-09-25T04:06:38.489Z,99.84
2016-09-25T04:07:38.756Z,99.36
2016-09-25T04:08:38.713Z,99.36
2016-09-25T04:09:38.374Z,99.36
2016-09-25T04:10:38.640Z,99.74
2016-09-25T04:11:38.604Z,99.84
2016-09-25T04:12:38.567Z,99.55
2016-09-25T04:13:38.531Z,99.99
2016-09-25T04:14:38.492Z,99.93
2016-09-25T04:15:38.458Z,99.99
2016-09-25T04:16:38.115Z,99.84
2016-09-25T04:17:38.380Z,99.55
2016-09-25T04:18:38.042Z,99.98
2016-09-25T04:19:38.308Z,99.98
2016-09-25T04:20:38.270Z,99.99
2016-09-25T04:21:38.232Z,99.99
2016-09-25T04:22:38.200Z,99.6
2016-09-25T04:23:37.858Z,99.88
2016-09-25T04:24:37.823Z,99.79
2016-09-25T04:25:38.287Z,99.22
2016-09-25T04:26:38.049Z,99.12
2016-09-25T04:27:38.013Z,99.6
2016-09-25T04:28:37.979Z,99.64
2016-09-25T04:29:37.939Z,99.5
2016-09-25T04:30:37.901Z,99.93
2016-09-25T04:31:37.866Z,99.31
2016-09-25T04:32:37.527Z,99.36
2016-09-25T04:33:37.794Z,99.88
2016-09-25T04:34:37.449Z,99.69
2016-09-25T04:35:37.719Z,99.99
2016-09-25T04:36:37.685Z,99.99
2016-09-25T04:37:37.647Z,99.88
2016-09-25T04:38:37.609Z,99.74
2016-09-25T04:39:37.267Z,99.99
2016-09-25T04:40:37.542Z,99.99
2016-09-25T04:41:37.496Z,99.99
2016-09-25T04:42:37.460Z,99.99
2016-09-25T04:43:37.428Z,99.99
2016-09-25T04:44:37.386Z,99.99
2016-09-25T04:45:37.353Z,99.99
2016-09-25T04:46:37.313Z,99.99
2016-09-25T04:47:37.280Z,99.99
2016-09-25T04:48:37.253Z,99.99
2016-09-25T04:49:37.202Z,99.99
2016-09-25T04:50:37.166Z,99.99
2016-09-25T04:51:37.133Z,99.99
2016-09-25T04:52:37.094Z,99.99
2016-09-25T04:53:37.055Z,99.99
2016-09-25T04:54:37.018Z,99.99
2016-09-25T04:55:36.984Z,99.99
2016-09-25T04:56:36.949Z,99.99
2016-09-25T04:57:36.909Z,99.99
2016-09-25T04:58:36.875Z,99.99
2016-09-25T04:59:36.839Z,99.99
2016-09-25T05:00:36.801Z,99.99
2016-09-25T05:01:36.460Z,99.99
2016-09-25T05:02:36.731Z,99.99
2016-09-25T05:03:36.694Z,99.99
2016-09-25T05:04:36.354Z,99.99
2016-09-25T05:05:36.620Z,99.99
2016-09-25T05:06:36.580Z,99.99
2016-09-25T05:07:36.244Z,99.99
2016-09-25T05:08:36.510Z,99.99
2016-09-25T05:09:36.477Z,99.99
2016-09-25T05:10:36.436Z,99.99
2016-09-25T05:11:36.396Z,99.99
2016-09-25T05:12:36.371Z,99.99
2016-09-25T05:13:36.330Z,99.99
2016-09-25T05:14:36.292Z,99.99
2016-09-25T05:15:36.256Z,99.98
2016-09-25T05:16:36.219Z,99.69
2016-09-25T05:17:36.187Z,99.99
2016-09-25T05:18:36.147Z,99.98
2016-09-25T05:19:36.114Z,99.69
2016-09-25T05:20:36.075Z,99.84
2016-09-25T05:21:36.038Z,99.99
2016-09-25T05:22:36.005Z,99.32
2016-09-25T05:23:35.973Z,99.32
2016-09-25T05:24:35.932Z,99.75
2016-09-25T05:25:35.898Z,98.89
2016-09-25T05:26:35.862Z,99.65
2016-09-25T05:27:35.824Z,99.75
2016-09-25T05:28:35.789Z,99.99
2016-09-25T05:29:35.755Z,99.18
2016-09-25T05:30:35.717Z,99.08
2016-09-25T05:31:35.680Z,99.08
2016-09-25T05:32:35.646Z,99.08
2016-09-25T05:33:35.307Z,99.08
2016-09-25T05:34:35.575Z,99.08
2016-09-25T05:35:35.236Z,99.27
2016-09-25T05:36:35.499Z,98.7
2016-09-25T05:37:35.467Z,98.51
2016-09-25T05:38:35.431Z,98.51
2016-09-25T05:39:35.397Z,98.41
2016-09-25T05:40:35.359Z,98.99
2016-09-25T05:41:35.021Z,98.18
2016-09-25T05:42:35.288Z,98.18
2016-09-25T05:43:34.951Z,97.8
2016-09-25T05:44:35.215Z,97.89
2016-09-25T05:45:35.181Z,98.36
2016-09-25T05:46:35.144Z,97.7
2016-09-25T05:47:35.108Z,97.51
2016-09-25T05:48:35.075Z,97.41
2016-09-25T05:49:34.738Z,97.7
2016-09-25T05:50:35.022Z,97.51
2016-09-25T05:51:34.969Z,97.61
2016-09-25T05:52:34.933Z,97.61
2016-09-25T05:53:34.899Z,97.22
2016-09-25T05:54:34.861Z,97.03
2016-09-25T05:55:34.830Z,96.8
2016-09-25T05:56:34.791Z,96.8
2016-09-25T05:57:34.452Z,97.27
2016-09-25T05:58:34.723Z,96.7
2016-09-25T05:59:34.686Z,96.8
2016-09-25T06:00:34.655Z,97.08
2016-09-25T06:01:34.616Z,96.22
2016-09-25T06:02:34.279Z,96.03
2016-09-25T06:03:34.546Z,95.84
2016-09-25T06:04:34.509Z,96.22
2016-09-25T06:05:34.170Z,95.84
2016-09-25T06:06:34.440Z,95.46
2016-09-25T06:07:34.402Z,95.56
2016-09-25T06:08:34.387Z,95.08
2016-09-25T06:09:34.344Z,95.37
2016-09-25T06:10:34.303Z,94.79
2016-09-25T06:11:34.263Z,94.98
2016-09-25T06:12:34.231Z,95.46
2016-09-25T06:13:34.195Z,95.84
2016-09-25T06:14:34.171Z,96.41
2016-09-25T06:15:33.819Z,96.08
2016-09-25T06:16:34.086Z,96.27
2016-09-25T06:17:34.053Z,96.27
2016-09-25T06:18:34.017Z,96.37
2016-09-25T06:19:33.982Z,96.27
2016-09-25T06:20:33.948Z,95.41
2016-09-25T06:21:33.913Z,95.51
2016-09-25T06:22:33.574Z,95.61
2016-09-25T06:23:33.844Z,95.12
2016-09-25T06:24:33.813Z,95.12
2016-09-25T06:25:33.475Z,95.12
2016-09-25T06:26:33.742Z,94.93
2016-09-25T06:27:33.706Z,94.65
2016-09-25T06:28:33.679Z,94.65
2016-09-25T06:29:33.636Z,94.74
2016-09-25T06:30:33.603Z,94.31
2016-09-25T06:31:33.566Z,93.93
2016-09-25T06:32:33.231Z,94.03
2016-09-25T06:33:33.497Z,94.41
2016-09-25T06:34:33.463Z,94.22
2016-09-25T06:35:33.426Z,93.93
2016-09-25T06:36:33.395Z,94.31
2016-09-25T06:37:33.361Z,93.65
2016-09-25T06:38:33.324Z,93.55
2016-09-25T06:39:33.293Z,93.55
2016-09-25T06:40:33.257Z,93.93
2016-09-25T06:41:33.219Z,93.26
2016-09-25T06:42:33.187Z,93.93
2016-09-25T06:43:33.154Z,94.03
2016-09-25T06:44:33.119Z,93.74
2016-09-25T06:45:33.093Z,93.93
2016-09-25T06:46:33.049Z,94.36
2016-09-25T06:47:33.019Z,94.36
2016-09-25T06:48:32.684Z,94.36
2016-09-25T06:49:32.948Z,94.36
2016-09-25T06:50:32.914Z,93.98
2016-09-25T06:51:32.882Z,93.98
2016-09-25T06:52:32.845Z,93.88
2016-09-25T06:53:32.813Z,93.7
2016-09-25T06:54:32.476Z,93.6
2016-09-25T06:55:32.745Z,93.5
2016-09-25T06:56:32.708Z,93.6
2016-09-25T06:57:32.679Z,93.74
2016-09-25T06:58:32.342Z,93.65
2016-09-25T06:59:32.611Z,93.55
2016-09-25T07:00:32.272Z,93.74
2016-09-25T07:01:32.542Z,93.26
2016-09-25T07:02:32.204Z,93.16
2016-09-25T07:03:32.475Z,93.36
2016-09-25T07:04:32.136Z,93.45
2016-09-25T07:05:32.406Z,93.45
2016-09-25T07:06:32.071Z,93.26
2016-09-25T07:07:32.339Z,93.31
2016-09-25T07:08:32.305Z,92.79
2016-09-25T07:09:32.269Z,92.64
2016-09-25T07:10:31.938Z,93.02
2016-09-25T07:11:32.202Z,92.45
2016-09-25T07:12:32.171Z,92.54
2016-09-25T07:13:32.139Z,92.45
2016-09-25T07:14:32.116Z,91.97
2016-09-25T07:15:32.070Z,92.35
2016-09-25T07:16:32.053Z,92.25
2016-09-25T07:17:32.006Z,91.88
2016-09-25T07:18:31.970Z,91.2
2016-09-25T07:19:31.941Z,91.2
2016-09-25T07:20:31.907Z,91.3
2016-09-25T07:21:31.572Z,91.02
2016-09-25T07:22:31.838Z,91.2
2016-09-25T07:23:31.501Z,91.02
2016-09-25T07:24:31.771Z,91.02
2016-09-25T07:25:31.738Z,91.3
2016-09-25T07:26:31.706Z,91.49
2016-09-25T07:27:31.673Z,91.3
2016-09-25T07:28:31.637Z,91.59
2016-09-25T07:29:31.302Z,91.3
2016-09-25T07:30:31.576Z,90.92
2016-09-25T07:31:31.541Z,90.82
2016-09-25T07:32:31.505Z,91.11
2016-09-25T07:33:31.488Z,91.06
2016-09-25T07:34:31.439Z,91.06
2016-09-25T07:35:31.107Z,90.87
2016-09-25T07:36:31.380Z,90.58
2016-09-25T07:37:31.342Z,90.39
2016-09-25T07:38:31.004Z,90.01
2016-09-25T07:39:31.277Z,90.01
2016-09-25T07:40:31.245Z,90.01
2016-09-25T07:41:31.211Z,90.01
2016-09-25T07:42:30.875Z,89.62
2016-09-25T07:43:31.143Z,89.43
2016-09-25T07:44:31.117Z,89.62
2016-09-25T07:45:31.082Z,89.72
2016-09-25T07:46:31.046Z,89.62
2016-09-25T07:47:31.012Z,89.15
2016-09-25T07:48:30.680Z,89.24
2016-09-25T07:49:30.948Z,89.15
2016-09-25T07:50:30.914Z,89.15
2016-09-25T07:51:30.881Z,88.81
2016-09-25T07:52:30.851Z,88.71
2016-09-25T07:53:30.816Z,88.81
2016-09-25T07:54:30.782Z,88.81
2016-09-25T07:55:30.749Z,89.09
2016-09-25T07:56:30.716Z,89
2016-09-25T07:57:30.689Z,89
2016-09-25T07:58:30.655Z,88.23
2016-09-25T07:59:30.620Z,88.33
2016-09-25T08:00:30.587Z,88.13
2016-09-25T08:01:30.556Z,87.76
2016-09-25T08:02:30.524Z,87.37
2016-09-25T08:03:30.492Z,87.95
2016-09-25T08:04:30.456Z,87.18
2016-09-25T08:05:30.426Z,87.47
2016-09-25T08:06:30.394Z,86.9
2016-09-25T08:07:30.362Z,86.99
2016-09-25T08:08:30.335Z,86.8
2016-09-25T08:09:30.298Z,86.8
2016-09-25T08:10:29.964Z,87.08
2016-09-25T08:11:30.230Z,86.51
2016-09-25T08:12:30.200Z,86.8
2016-09-25T08:13:30.166Z,86.8
2016-09-25T08:14:30.143Z,86.9
2016-09-25T08:15:30.101Z,86.8
2016-09-25T08:16:29.767Z,86.84
2016-09-25T08:17:30.039Z,86.74
2016-09-25T08:18:30.014Z,86.8
2016-09-25T08:19:29.668Z,86.46
2016-09-25T08:20:29.938Z,86.55
2016-09-25T08:21:29.906Z,86.65
2016-09-25T08:22:29.875Z,86.74
2016-09-25T08:23:29.842Z,86.17
2016-09-25T08:24:29.809Z,85.98
2016-09-25T08:25:29.783Z,85.5
2016-09-25T08:26:29.745Z,85.79
2016-09-25T08:27:29.412Z,85.6
2016-09-25T08:28:29.377Z,85.6
2016-09-25T08:29:29.649Z,85.41
2016-09-25T08:30:29.618Z,85.21
2016-09-25T08:31:29.585Z,85.31
2016-09-25T08:32:29.550Z,85.12
2016-09-25T08:33:29.217Z,85.5
2016-09-25T08:34:29.185Z,84.78
2016-09-25T08:35:29.460Z,84.74
2016-09-25T08:36:29.423Z,84.92
2016-09-25T08:37:29.390Z,85.35
2016-09-25T08:38:29.057Z,84.78
2016-09-25T08:39:29.025Z,84.49
2016-09-25T08:40:28.993Z,84.78
2016-09-25T08:41:29.265Z,84.01
2016-09-25T08:42:29.233Z,84.2
2016-09-25T08:43:29.202Z,84.2
2016-09-25T08:44:29.167Z,83.82
2016-09-25T08:45:28.839Z,83.92
2016-09-25T08:46:29.102Z,83.44
2016-09-25T08:47:29.072Z,83.92
2016-09-25T08:48:29.040Z,83.44
2016-09-25T08:49:29.013Z,83.15
2016-09-25T08:50:28.977Z,82.42
2016-09-25T08:51:28.950Z,82.42
2016-09-25T08:52:28.915Z,81.85
2016-09-25T08:53:28.894Z,82.14
2016-09-25T08:54:28.851Z,81.75
2016-09-25T08:55:28.514Z,81.85
2016-09-25T08:56:28.485Z,81.56
2016-09-25T08:57:28.766Z,81.85
2016-09-25T08:58:28.732Z,80.99
2016-09-25T08:59:28.695Z,81.08
2016-09-25T09:00:28.660Z,80.7
2016-09-25T09:01:28.631Z,80.7
2016-09-25T09:02:28.597Z,80.6
2016-09-25T09:03:28.568Z,80.83
2016-09-25T09:04:28.538Z,80.83
2016-09-25T09:05:28.501Z,80.55
2016-09-25T09:06:28.475Z,80.26
2016-09-25T09:07:28.444Z,79.97
2016-09-25T09:08:28.410Z,80.07
2016-09-25T09:09:28.379Z,79.97
2016-09-25T09:10:28.346Z,80.07
2016-09-25T09:11:28.316Z,79.68
2016-09-25T09:12:28.289Z,79.68
2016-09-25T09:13:28.251Z,79.11
2016-09-25T09:14:28.223Z,78.82
2016-09-25T09:15:28.390Z,79.11
2016-09-25T09:16:28.158Z,78.44
2016-09-25T09:17:28.130Z,78.82
2016-09-25T09:18:28.096Z,78.57
2016-09-25T09:19:28.068Z,78.15
2016-09-25T09:20:28.034Z,77.61
2016-09-25T09:21:28.004Z,77.51
2016-09-25T09:22:27.673Z,77.13
2016-09-25T09:23:27.639Z,77.04
2016-09-25T09:24:27.912Z,76.65
2016-09-25T09:25:27.579Z,76.37
2016-09-25T09:26:27.850Z,76.17
2016-09-25T09:27:27.521Z,75.63
2016-09-25T09:28:27.494Z,75.25
2016-09-25T09:29:27.455Z,75.15
2016-09-25T09:30:27.728Z,74.58
2016-09-25T09:31:27.697Z,74.96
2016-09-25T09:32:27.667Z,74.39
2016-09-25T09:33:27.633Z,74.39
2016-09-25T09:34:27.606Z,73.94
2016-09-25T09:35:27.585Z,73.94
2016-09-25T09:36:27.552Z,73.27
2016-09-25T09:37:27.515Z,72.69
2016-09-25T09:38:27.492Z,71.87
2016-09-25T09:39:27.454Z,71.48
2016-09-25T09:40:27.421Z,71.23
2016-09-25T09:41:27.091Z,69.69
2016-09-25T09:42:27.363Z,68.76
2016-09-25T09:43:27.334Z,68.13
2016-09-25T09:44:27.304Z,67.16
2016-09-25T09:45:27.276Z,65.75
2016-09-25T09:46:27.242Z,63.76
2016-09-25T09:47:27.214Z,62.45
2016-09-25T09:48:27.185Z,61.35
2016-09-25T09:49:27.158Z,59.61
2016-09-25T09:50:27.137Z,59.06
2016-09-25T09:51:27.103Z,58.58
2016-09-25T09:52:27.074Z,57.62
2016-09-25T09:53:27.041Z,56.68
2016-09-25T09:54:27.017Z,54.13
2016-09-25T09:55:26.989Z,50.6
2016-09-25T09:56:26.961Z,47.2
2016-09-25T09:57:26.932Z,44.37
2016-09-25T09:58:26.908Z,41.78
2016-09-25T09:59:26.882Z,38.52
2016-09-25T10:00:26.555Z,37.68
2016-09-25T10:01:26.832Z,36.08
2016-09-25T10:02:26.810Z,34.55
2016-09-25T10:03:26.781Z,33.51
2016-09-25T10:04:26.454Z,32.27
2016-09-25T10:05:26.736Z,30.52
2016-09-25T10:06:26.713Z,29.66
2016-09-25T10:07:26.383Z,28.31
2016-09-25T10:08:26.664Z,27.83
2016-09-25T10:09:26.643Z,27.17
2016-09-25T10:10:26.628Z,26.79
2016-09-25T10:11:26.295Z,25.92
2016-09-25T10:12:26.580Z,25.24
2016-09-25T10:13:26.559Z,24.66
2016-09-25T10:14:26.532Z,24.37
2016-09-25T10:15:26.212Z,24.37
2016-09-25T10:16:26.496Z,24.17
2016-09-25T10:17:26.472Z,24.37
2016-09-25T10:18:26.451Z,23.79
2016-09-25T10:19:26.431Z,22.91
2016-09-25T10:20:26.414Z,23.02
2016-09-25T10:21:26.391Z,22.82
2016-09-25T10:22:26.375Z,21.84
2016-09-25T10:23:26.351Z,21.65
2016-09-25T10:24:26.332Z,21.56
2016-09-25T10:25:26.008Z,21.36
2016-09-25T10:26:26.295Z,21.17
2016-09-25T10:27:26.273Z,20.97
2016-09-25T10:28:26.252Z,20.59
2016-09-25T10:29:26.230Z,20.09
2016-09-25T10:30:26.212Z,19.6
2016-09-25T10:31:26.196Z,20.01
2016-09-25T10:32:26.183Z,19.52
2016-09-25T10:33:26.153Z,18.93
2016-09-25T10:34:26.137Z,18.34
2016-09-25T10:35:26.114Z,19.13
2016-09-25T10:36:26.096Z,18.92
2016-09-25T10:37:26.078Z,19.51
2016-09-25T10:38:26.055Z,19.32
2016-09-25T10:39:26.037Z,19.12
2016-09-25T10:40:26.019Z,19.52
2016-09-25T10:41:25.998Z,19.21
2016-09-25T10:42:25.994Z,19.12
2016-09-25T10:43:25.963Z,19.42
2016-09-25T10:44:25.944Z,19.21
2016-09-25T10:45:25.930Z,18.92
2016-09-25T10:46:25.904Z,18.73
2016-09-25T10:47:25.587Z,19.12
2016-09-25T10:48:25.862Z,18.04
2016-09-25T10:49:25.849Z,18.23
2016-09-25T10:50:25.824Z,18.23
2016-09-25T10:51:25.809Z,19.1
2016-09-25T10:52:25.785Z,19.1
2016-09-25T10:53:25.774Z,19.3
2016-09-25T10:54:25.747Z,19.19
2016-09-25T10:55:25.735Z,19.48
2016-09-25T10:56:25.710Z,19.57
2016-09-25T10:57:25.690Z,20.17
2016-09-25T10:58:25.679Z,20.26
2016-09-25T10:59:25.652Z,20.56
2016-09-25T11:00:25.635Z,20.46
2016-09-25T11:02:25.724Z,20.06
2016-09-25T11:03:25.806Z,19.77
2016-09-25T11:04:25.298Z,20.17
2016-09-25T11:05:25.693Z,20.06
2016-09-25T11:06:25.674Z,20.25
2016-09-25T11:07:25.662Z,20.94
2016-09-25T11:08:25.721Z,21.03
2016-09-25T11:09:25.791Z,21.72
2016-09-25T11:10:25.652Z,21.9
2016-09-25T11:11:25.761Z,21.69
2016-09-25T11:12:25.403Z,22.38
2016-09-25T11:13:25.074Z,22.56
2016-09-25T11:14:25.054Z,22.66
2016-09-25T11:15:25.033Z,23.43
2016-09-25T11:16:25.313Z,23.71
2016-09-25T11:17:25.299Z,24.68
2016-09-25T11:18:25.273Z,25.07
2016-09-25T11:19:25.249Z,25.07
2016-09-25T11:20:25.229Z,25.74
2016-09-25T11:21:24.906Z,26.42
2016-09-25T11:22:24.883Z,26.7
2016-09-25T11:23:25.168Z,27.56
2016-09-25T11:24:25.151Z,28.14
2016-09-25T11:25:25.123Z,28.52
2016-09-25T11:26:25.097Z,29.18
2016-09-25T11:27:25.078Z,30.15
2016-09-25T11:28:25.052Z,30.81
2016-09-25T11:29:25.030Z,31.48
2016-09-25T11:30:25.008Z,32.53
2016-09-25T11:31:24.989Z,33.39
2016-09-25T11:32:24.963Z,33.67
2016-09-25T11:33:24.944Z,34.72
2016-09-25T11:34:24.913Z,35.39
2016-09-25T11:35:24.896Z,36.34
2016-09-25T11:36:24.870Z,36.71
2016-09-25T11:37:24.544Z,37.98
2016-09-25T11:38:24.819Z,38.54
2016-09-25T11:39:24.810Z,39.39
2016-09-25T11:40:24.773Z,39.39
2016-09-25T11:41:24.752Z,39.86
2016-09-25T11:42:24.724Z,40.64
2016-09-25T11:43:24.701Z,40.91
2016-09-25T11:44:24.677Z,41.58
2016-09-25T11:45:24.649Z,42.34
2016-09-25T11:46:24.625Z,43.31
2016-09-25T11:47:24.300Z,43.02
2016-09-25T11:48:24.575Z,43.87
2016-09-25T11:49:24.549Z,44.16
2016-09-25T11:50:24.521Z,44.64
2016-09-25T11:51:24.498Z,44.91
2016-09-25T11:52:24.470Z,45.3
2016-09-25T11:53:24.444Z,45.49
2016-09-25T11:54:24.420Z,45.95
2016-09-25T11:55:24.098Z,46.25
2016-09-25T11:56:24.369Z,46.34
2016-09-25T11:57:24.354Z,46.15
2016-09-25T11:58:24.313Z,46.32
2016-09-25T11:59:24.293Z,46.42
2016-09-25T12:00:24.261Z,47.09
2016-09-25T12:01:24.235Z,47.19
2016-09-25T12:02:24.211Z,47.48
2016-09-25T12:03:24.181Z,47.19
2016-09-25T12:04:24.157Z,47.55
2016-09-25T12:05:23.824Z,47.94
2016-09-25T12:06:24.102Z,48.71
2016-09-25T12:07:23.773Z,48.71
2016-09-25T12:08:24.047Z,48.61
2016-09-25T12:09:23.718Z,48.81
2016-09-25T12:10:24.005Z,48.9
2016-09-25T12:11:23.964Z,48.69
2016-09-25T12:12:23.939Z,48.79
2016-09-25T12:13:23.910Z,48.79
2016-09-25T12:14:23.886Z,49.55
2016-09-25T12:15:23.552Z,49.37
2016-09-25T12:16:23.829Z,49.37
2016-09-25T12:17:23.804Z,49.92
2016-09-25T12:18:23.778Z,49.92
2016-09-25T12:19:23.748Z,50.59
2016-09-25T12:20:23.719Z,50.89
2016-09-25T12:21:23.689Z,51.37
2016-09-25T12:22:23.664Z,50.79
2016-09-25T12:23:23.633Z,51.17
2016-09-25T12:24:23.611Z,51.46
2016-09-25T12:25:23.579Z,51.37
2016-09-25T12:26:23.550Z,51.07
2016-09-25T12:27:23.527Z,50.69
2016-09-25T12:28:23.499Z,50.76
2016-09-25T12:29:23.477Z,50.67
2016-09-25T12:30:23.144Z,50.76
2016-09-25T12:31:23.408Z,50.96
2016-09-25T12:32:23.386Z,50.86
2016-09-25T12:33:23.364Z,51.15
2016-09-25T12:34:23.029Z,50.76
2016-09-25T12:35:23.298Z,50.57
2016-09-25T12:36:22.970Z,50.76
2016-09-25T12:37:22.940Z,51.53
2016-09-25T12:38:22.915Z,51.05
2016-09-25T12:39:23.190Z,51.92
2016-09-25T12:40:23.160Z,51.15
2016-09-25T12:41:23.127Z,51.15
2016-09-25T12:42:23.103Z,50.96
2016-09-25T12:43:23.075Z,50.96
2016-09-25T12:44:23.049Z,51.05
2016-09-25T12:45:22.714Z,51.34
2016-09-25T12:46:22.990Z,51.44
2016-09-25T12:47:22.966Z,51.53
2016-09-25T12:48:22.933Z,51.63
2016-09-25T12:49:22.604Z,50.76
2016-09-25T12:50:22.877Z,50.67
2016-09-25T12:51:22.548Z,50.57
2016-09-25T12:52:22.823Z,51.25
2016-09-25T12:53:22.800Z,51.15
2016-09-25T12:54:22.462Z,51.15
2016-09-25T12:55:22.737Z,51.53